sensor_id;sensor_type;location;lat;lon;timestamp;pressure;altitude;pressure_sealevel;temperature;humidity
54407;BME280;40313;50.308;30.374;2023-01-27T02:36:00;100169.44;;;-3.15;100.00
54407;BME280;40313;50.308;30.374;2023-01-27T02:38:31;100181.47;;;-3.04;100.00
54407;BME280;40313;50.308;30.374;2023-01-27T02:41:02;100183.16;;;-3.00;100.00
54407;BME280;40313;50.308;30.374;2023-01-27T02:43:30;100181.50;;;-2.97;100.00
54407;BME280;40313;50.308;30.374;2023-01-27T02:45:57;100183.25;;;-2.92;100.00
54407;BME280;40313;50.308;30.374;2023-01-27T02:48:23;100170.50;;;-2.91;100.00
54407;BME280;40313;50.308;30.374;2023-01-27T02:50:50;100176.44;;;-2.89;100.00
54407;BME280;40313;50.308;30.374;2023-01-27T02:53:18;100176.47;;;-2.87;100.00
54407;BME280;40313;50.308;30.374;2023-01-27T02:55:44;100180.72;;;-2.89;100.00
54407;BME280;40313;50.308;30.374;2023-01-27T02:58:11;100181.59;;;-2.86;100.00
54407;BME280;40313;50.308;30.374;2023-01-27T03:00:39;100179.91;;;-2.84;100.00
54407;BME280;40313;50.308;30.374;2023-01-27T03:03:07;100177.31;;;-2.88;100.00
54407;BME280;40313;50.308;30.374;2023-01-27T03:05:33;100186.72;;;-2.84;100.00
54407;BME280;40313;50.308;30.374;2023-01-27T03:08:00;100185.00;;;-2.87;100.00
54407;BME280;40313;50.308;30.374;2023-01-27T03:10:28;100179.06;;;-2.86;100.00
54407;BME280;40313;50.308;30.374;2023-01-27T03:12:54;100181.59;;;-2.86;100.00
54407;BME280;40313;50.308;30.374;2023-01-27T03:15:21;100175.63;;;-2.86;100.00
54407;BME280;40313;50.308;30.374;2023-01-27T03:18:05;100171.34;;;-2.87;100.00
54407;BME280;40313;50.308;30.374;2023-01-27T03:20:42;100170.53;;;-2.86;100.00
54407;BME280;40313;50.308;30.374;2023-01-27T03:23:09;100172.22;;;-2.88;100.00
54407;BME280;40313;50.308;30.374;2023-01-27T03:25:37;100163.66;;;-2.92;100.00
54407;BME280;40313;50.308;30.374;2023-01-27T03:28:05;100162.00;;;-2.91;100.00
54407;BME280;40313;50.308;30.374;2023-01-27T03:30:31;100167.09;;;-2.90;100.00
54407;BME280;40313;50.308;30.374;2023-01-27T03:32:58;100162.81;;;-2.92;100.00
54407;BME280;40313;50.308;30.374;2023-01-27T03:35:24;100158.53;;;-2.97;100.00
54407;BME280;40313;50.308;30.374;2023-01-27T03:37:58;100158.53;;;-2.95;100.00
54407;BME280;40313;50.308;30.374;2023-01-27T03:40:43;100162.81;;;-2.97;100.00
54407;BME280;40313;50.308;30.374;2023-01-27T03:43:27;100158.53;;;-2.97;100.00
54407;BME280;40313;50.308;30.374;2023-01-27T03:46:11;100154.25;;;-2.99;100.00
54407;BME280;40313;50.308;30.374;2023-01-27T03:48:42;100153.41;;;-3.00;100.00
54407;BME280;40313;50.308;30.374;2023-01-27T03:51:09;100155.97;;;-3.00;100.00
54407;BME280;40313;50.308;30.374;2023-01-27T03:53:35;100155.94;;;-3.04;100.00
54407;BME280;40313;50.308;30.374;2023-01-27T03:56:03;100153.34;;;-3.06;100.00
54407;BME280;40313;50.308;30.374;2023-01-27T03:58:31;100154.19;;;-3.10;100.00
54407;BME280;40313;50.308;30.374;2023-01-27T04:00:59;100148.22;;;-3.09;100.00
54407;BME280;40313;50.308;30.374;2023-01-27T04:03:26;100151.66;;;-3.10;100.00
54407;BME280;40313;50.308;30.374;2023-01-27T04:06:12;100158.41;;;-3.12;100.00
54407;BME280;40313;50.308;30.374;2023-01-27T04:08:56;100160.13;;;-3.14;100.00
54407;BME280;40313;50.308;30.374;2023-01-27T04:11:24;100153.28;;;-3.15;100.00
54407;BME280;40313;50.308;30.374;2023-01-27T04:14:07;100161.75;;;-3.19;100.00
54407;BME280;40313;50.308;30.374;2023-01-27T04:16:34;100171.97;;;-3.21;100.00
54407;BME280;40313;50.308;30.374;2023-01-27T04:19:01;100160.91;;;-3.23;100.00
54407;BME280;40313;50.308;30.374;2023-01-27T04:21:28;100166.03;;;-3.20;100.00
54407;BME280;40313;50.308;30.374;2023-01-27T04:23:55;100166.88;;;-3.19;100.00
54407;BME280;40313;50.308;30.374;2023-01-27T04:26:21;100174.50;;;-3.22;100.00
54407;BME280;40313;50.308;30.374;2023-01-27T04:28:49;100177.88;;;-3.23;100.00
54407;BME280;40313;50.308;30.374;2023-01-27T04:31:16;100171.94;;;-3.24;100.00
54407;BME280;40313;50.308;30.374;2023-01-27T04:33:42;100177.88;;;-3.23;100.00
54407;BME280;40313;50.308;30.374;2023-01-27T04:36:09;100184.69;;;-3.25;100.00
54407;BME280;40313;50.308;30.374;2023-01-27T04:38:35;100184.66;;;-3.28;100.00
54407;BME280;40313;50.308;30.374;2023-01-27T04:41:02;100180.41;;;-3.26;100.00
54407;BME280;40313;50.308;30.374;2023-01-27T04:43:28;100182.13;;;-3.28;100.00
54407;BME280;40313;50.308;30.374;2023-01-27T04:45:56;100189.78;;;-3.28;100.00
54407;BME280;40313;50.308;30.374;2023-01-27T04:48:22;100187.22;;;-3.28;100.00
54407;BME280;40313;50.308;30.374;2023-01-27T04:50:49;100178.69;;;-3.29;100.00
54407;BME280;40313;50.308;30.374;2023-01-27T04:53:15;100180.41;;;-3.28;100.00
54407;BME280;40313;50.308;30.374;2023-01-27T04:55:42;100177.84;;;-3.30;100.00
54407;BME280;40313;50.308;30.374;2023-01-27T04:58:12;100172.75;;;-3.30;100.00
54407;BME280;40313;50.308;30.374;2023-01-27T05:00:38;100185.50;;;-3.31;100.00
54407;BME280;40313;50.308;30.374;2023-01-27T05:03:06;100182.06;;;-3.33;100.00
54407;BME280;40313;50.308;30.374;2023-01-27T05:05:34;100186.31;;;-3.34;100.00
54407;BME280;40313;50.308;30.374;2023-01-27T05:08:01;100185.44;;;-3.36;100.00
54407;BME280;40313;50.308;30.374;2023-01-27T05:10:27;100191.38;;;-3.37;100.00
54407;BME280;40313;50.308;30.374;2023-01-27T05:12:54;100182.00;;;-3.41;100.00
54407;BME280;40313;50.308;30.374;2023-01-27T05:15:20;100185.34;;;-3.45;100.00
54407;BME280;40313;50.308;30.374;2023-01-27T05:17:46;100189.53;;;-3.50;100.00
54407;BME280;40313;50.308;30.374;2023-01-27T05:20:14;100192.09;;;-3.50;100.00
54407;BME280;40313;50.308;30.374;2023-01-27T05:22:41;100190.38;;;-3.54;100.00
54407;BME280;40313;50.308;30.374;2023-01-27T05:25:07;100185.28;;;-3.54;100.00
54407;BME280;40313;50.308;30.374;2023-01-27T05:27:34;100182.72;;;-3.54;100.00
54407;BME280;40313;50.308;30.374;2023-01-27T05:30:00;100182.75;;;-3.53;100.00
54407;BME280;40313;50.308;30.374;2023-01-27T05:32:26;100185.28;;;-3.53;100.00
54407;BME280;40313;50.308;30.374;2023-01-27T05:34:53;100189.50;;;-3.53;100.00
54407;BME280;40313;50.308;30.374;2023-01-27T05:37:20;100188.66;;;-3.55;100.00
54407;BME280;40313;50.308;30.374;2023-01-27T05:39:47;100192.06;;;-3.53;100.00
54407;BME280;40313;50.308;30.374;2023-01-27T05:42:13;100189.50;;;-3.55;100.00
54407;BME280;40313;50.308;30.374;2023-01-27T05:44:39;100186.88;;;-3.62;100.00
54407;BME280;40313;50.308;30.374;2023-01-27T05:47:06;100193.72;;;-3.61;100.00
54407;BME280;40313;50.308;30.374;2023-01-27T05:49:32;100186.06;;;-3.60;100.00
54407;BME280;40313;50.308;30.374;2023-01-27T05:51:58;100192.88;;;-3.57;100.00
54407;BME280;40313;50.308;30.374;2023-01-27T05:54:26;100192.03;;;-3.56;100.00
54407;BME280;40313;50.308;30.374;2023-01-27T05:56:52;100187.84;;;-3.53;100.00
54407;BME280;40313;50.308;30.374;2023-01-27T10:31:41;100122.47;;;-1.50;100.00
54407;BME280;40313;50.308;30.374;2023-01-27T10:34:13;100119.06;;;-1.29;100.00
54407;BME280;40313;50.308;30.374;2023-01-27T10:36:49;100119.09;;;-1.20;100.00
54407;BME280;40313;50.308;30.374;2023-01-27T10:39:20;100113.09;;;-1.03;100.00
54407;BME280;40313;50.308;30.374;2023-01-27T10:41:51;100110.56;;;-1.33;100.00
54407;BME280;40313;50.308;30.374;2023-01-27T10:44:26;100114.81;;;-1.33;100.00
54407;BME280;40313;50.308;30.374;2023-01-27T10:47:00;100111.41;;;-1.59;100.00
54407;BME280;40313;50.308;30.374;2023-01-27T10:49:34;100113.97;;;-1.54;100.00
54407;BME280;40313;50.308;30.374;2023-01-27T10:52:04;100112.22;;;-1.66;100.00
54407;BME280;40313;50.308;30.374;2023-01-27T10:54:34;100115.66;;;-1.62;100.00
54407;BME280;40313;50.308;30.374;2023-01-27T10:57:04;100105.44;;;-1.39;100.00
54407;BME280;40313;50.308;30.374;2023-01-27T10:59:33;100101.16;;;-1.18;100.00
54407;BME280;40313;50.308;30.374;2023-01-27T11:02:08;100107.94;;;-0.96;100.00
54407;BME280;40313;50.308;30.374;2023-01-27T11:04:39;100101.97;;;-0.85;100.00
54407;BME280;40313;50.308;30.374;2023-01-27T11:07:08;100093.41;;;-0.80;100.00
54407;BME280;40313;50.308;30.374;2023-01-27T11:09:41;100092.53;;;-0.68;100.00
54407;BME280;40313;50.308;30.374;2023-01-27T11:12:12;100089.03;;;-0.52;100.00
54407;BME280;40313;50.308;30.374;2023-01-27T11:14:40;100083.84;;;-0.36;100.00
54407;BME280;40313;50.308;30.374;2023-01-27T11:17:13;100081.31;;;-0.39;100.00
54407;BME280;40313;50.308;30.374;2023-01-27T11:19:54;100083.09;;;-0.64;100.00
54407;BME280;40313;50.308;30.374;2023-01-27T11:22:22;100079.66;;;-0.51;100.00
54407;BME280;40313;50.308;30.374;2023-01-27T11:24:51;100095.00;;;-0.43;100.00
54407;BME280;40313;50.308;30.374;2023-01-27T11:27:24;100095.84;;;-0.47;100.00
54407;BME280;40313;50.308;30.374;2023-01-27T11:29:53;100084.72;;;-0.36;100.00
54407;BME280;40313;50.308;30.374;2023-01-27T11:32:26;100088.25;;;-0.69;100.00
54407;BME280;40313;50.308;30.374;2023-01-27T11:34:56;100082.34;;;-0.96;100.00
54407;BME280;40313;50.308;30.374;2023-01-27T11:37:26;100083.19;;;-0.89;100.00
54407;BME280;40313;50.308;30.374;2023-01-27T11:39:54;100080.59;;;-0.78;100.00
54407;BME280;40313;50.308;30.374;2023-01-27T11:42:21;100079.72;;;-0.73;100.00
54407;BME280;40313;50.308;30.374;2023-01-27T11:44:47;100077.13;;;-0.63;100.00
54407;BME280;40313;50.308;30.374;2023-01-27T11:47:17;100072.88;;;-0.71;100.00
54407;BME280;40313;50.308;30.374;2023-01-27T11:49:50;100075.47;;;-0.75;100.00
54407;BME280;40313;50.308;30.374;2023-01-27T11:52:18;100074.63;;;-0.76;100.00
54407;BME280;40313;50.308;30.374;2023-01-27T11:54:45;100082.34;;;-0.90;100.00
54407;BME280;40313;50.308;30.374;2023-01-27T11:57:15;100075.53;;;-1.05;100.00
54407;BME280;40313;50.308;30.374;2023-01-27T11:59:43;100081.47;;;-0.93;100.00
54407;BME280;40313;50.308;30.374;2023-01-27T12:02:14;100069.47;;;-0.79;100.00
54407;BME280;40313;50.308;30.374;2023-01-27T12:04:46;100071.16;;;-0.72;100.00
54407;BME280;40313;50.308;30.374;2023-01-27T12:07:18;100069.41;;;-0.59;100.00
54407;BME280;40313;50.308;30.374;2023-01-27T12:09:47;100074.59;;;-0.79;100.00
54407;BME280;40313;50.308;30.374;2023-01-27T12:12:21;100073.00;;;-1.25;100.00
54407;BME280;40313;50.308;30.374;2023-01-27T12:14:48;100058.47;;;-1.09;100.00
54407;BME280;40313;50.308;30.374;2023-01-27T12:17:18;100068.72;;;-1.16;100.00
54407;BME280;40313;50.308;30.374;2023-01-27T12:19:45;100071.28;;;-1.07;100.00
54407;BME280;40313;50.308;30.374;2023-01-27T12:22:13;100067.88;;;-1.28;100.00
54407;BME280;40313;50.308;30.374;2023-01-27T12:24:46;100066.22;;;-1.44;100.00
54407;BME280;40313;50.308;30.374;2023-01-27T12:27:17;100066.19;;;-1.50;100.00
54407;BME280;40313;50.308;30.374;2023-01-27T12:29:46;100064.50;;;-1.64;100.00
54407;BME280;40313;50.308;30.374;2023-01-27T12:32:15;100068.75;;;-1.77;100.00
54407;BME280;40313;50.308;30.374;2023-01-27T12:34:42;100066.19;;;-1.78;100.00
54407;BME280;40313;50.308;30.374;2023-01-27T12:37:19;100070.44;;;-1.93;100.00
54407;BME280;40313;50.308;30.374;2023-01-27T12:39:51;100064.44;;;-1.98;100.00
54407;BME280;40313;50.308;30.374;2023-01-27T12:42:36;100069.56;;;-2.09;100.00
54407;BME280;40313;50.308;30.374;2023-01-27T12:45:18;100058.50;;;-2.00;100.00
54407;BME280;40313;50.308;30.374;2023-01-27T12:47:58;100061.00;;;-2.09;100.00
54407;BME280;40313;50.308;30.374;2023-01-27T12:50:26;100063.56;;;-2.21;100.00
54407;BME280;40313;50.308;30.374;2023-01-27T12:53:03;100063.53;;;-2.31;100.00
54407;BME280;40313;50.308;30.374;2023-01-27T12:55:32;100062.63;;;-2.42;100.00
54407;BME280;40313;50.308;30.374;2023-01-27T12:58:00;100069.41;;;-2.50;100.00
54407;BME280;40313;50.308;30.374;2023-01-27T13:00:26;100075.31;;;-2.70;100.00
54407;BME280;40313;50.308;30.374;2023-01-27T13:03:04;100079.59;;;-2.64;100.00
54407;BME280;40313;50.308;30.374;2023-01-27T13:05:36;100083.81;;;-2.68;100.00
54407;BME280;40313;50.308;30.374;2023-01-27T13:08:03;100078.72;;;-2.62;100.00
54407;BME280;40313;50.308;30.374;2023-01-27T13:10:32;100086.44;;;-2.51;100.00
54407;BME280;40313;50.308;30.374;2023-01-27T13:12:59;100083.88;;;-2.55;100.00
54407;BME280;40313;50.308;30.374;2023-01-27T13:15:28;100070.19;;;-2.73;100.00
54407;BME280;40313;50.308;30.374;2023-01-27T13:17:56;100078.69;;;-2.77;100.00
54407;BME280;40313;50.308;30.374;2023-01-27T13:20:25;100086.28;;;-2.80;100.00
54407;BME280;40313;50.308;30.374;2023-01-27T13:22:58;100086.25;;;-2.88;100.00
54407;BME280;40313;50.308;30.374;2023-01-27T13:25:29;100093.03;;;-2.95;100.00
54407;BME280;40313;50.308;30.374;2023-01-27T13:28:04;100071.78;;;-2.92;100.00
54407;BME280;40313;50.308;30.374;2023-01-27T13:30:35;100075.97;;;-3.00;100.00
54407;BME280;40313;50.308;30.374;2023-01-27T13:33:10;100077.66;;;-3.07;100.00
54407;BME280;40313;50.308;30.374;2023-01-27T13:35:49;100079.31;;;-3.10;100.00
54407;BME280;40313;50.308;30.374;2023-01-27T13:38:22;100084.41;;;-3.15;100.00
54407;BME280;40313;50.308;30.374;2023-01-27T13:40:50;100090.34;;;-3.15;100.00
54407;BME280;40313;50.308;30.374;2023-01-27T13:43:22;100082.75;;;-3.10;100.00
54407;BME280;40313;50.308;30.374;2023-01-27T13:45:53;100091.19;;;-3.17;100.00
54407;BME280;40313;50.308;30.374;2023-01-27T13:48:25;100085.19;;;-3.25;100.00
54407;BME280;40313;50.308;30.374;2023-01-27T13:51:00;100080.94;;;-3.23;100.00
54407;BME280;40313;50.308;30.374;2023-01-27T13:53:28;100083.47;;;-3.23;100.00
54407;BME280;40313;50.308;30.374;2023-01-27T13:56:06;100078.38;;;-3.26;100.00
54407;BME280;40313;50.308;30.374;2023-01-27T13:58:46;100080.06;;;-3.28;100.00
54407;BME280;40313;50.308;30.374;2023-01-27T18:25:16;100133.72;;;-4.10;100.00
54407;BME280;40313;50.308;30.374;2023-01-27T18:27:48;100150.69;;;-4.07;100.00
54407;BME280;40313;50.308;30.374;2023-01-27T18:30:18;100152.41;;;-4.08;100.00
54407;BME280;40313;50.308;30.374;2023-01-27T18:32:49;100149.06;;;-4.04;100.00
54407;BME280;40313;50.308;30.374;2023-01-27T18:35:25;100144.81;;;-4.02;100.00
54407;BME280;40313;50.308;30.374;2023-01-27T18:37:54;100143.94;;;-4.07;100.00
54407;BME280;40313;50.308;30.374;2023-01-27T18:40:28;100143.94;;;-4.07;100.00
54407;BME280;40313;50.308;30.374;2023-01-27T18:42:56;100137.03;;;-4.17;100.00
54407;BME280;40313;50.308;30.374;2023-01-27T18:45:23;100133.63;;;-4.16;100.00
54407;BME280;40313;50.308;30.374;2023-01-27T18:47:50;100145.44;;;-4.24;100.00
54407;BME280;40313;50.308;30.374;2023-01-27T18:50:19;100136.94;;;-4.22;100.00
54407;BME280;40313;50.308;30.374;2023-01-27T18:52:46;100136.09;;;-4.24;100.00
54407;BME280;40313;50.308;30.374;2023-01-27T18:55:16;100131.00;;;-4.24;100.00
54407;BME280;40313;50.308;30.374;2023-01-27T18:57:46;100133.56;;;-4.22;100.00
54407;BME280;40313;50.308;30.374;2023-01-27T19:00:14;100136.16;;;-4.18;100.00
54407;BME280;40313;50.308;30.374;2023-01-27T19:02:42;100130.22;;;-4.18;100.00
54407;BME280;40313;50.308;30.374;2023-01-27T19:05:19;100131.06;;;-4.18;100.00
54407;BME280;40313;50.308;30.374;2023-01-27T19:07:46;100135.31;;;-4.18;100.00
54407;BME280;40313;50.308;30.374;2023-01-27T19:10:15;100131.94;;;-4.17;100.00
54407;BME280;40313;50.308;30.374;2023-01-27T19:12:41;100133.56;;;-4.22;100.00
54407;BME280;40313;50.308;30.374;2023-01-27T19:15:12;100131.91;;;-4.19;100.00
54407;BME280;40313;50.308;30.374;2023-01-27T19:17:39;100136.88;;;-4.28;100.00
54407;BME280;40313;50.308;30.374;2023-01-27T19:20:13;100124.19;;;-4.25;100.00
54407;BME280;40313;50.308;30.374;2023-01-27T19:22:40;100131.81;;;-4.26;100.00
54407;BME280;40313;50.308;30.374;2023-01-27T19:25:07;100125.88;;;-4.25;100.00
54407;BME280;40313;50.308;30.374;2023-01-27T19:27:39;100131.84;;;-4.23;100.00
54407;BME280;40313;50.308;30.374;2023-01-27T19:30:22;100128.47;;;-4.22;100.00
54407;BME280;40313;50.308;30.374;2023-01-27T19:32:49;100135.28;;;-4.20;100.00
54407;BME280;40313;50.308;30.374;2023-01-27T19:35:16;100131.03;;;-4.19;100.00
54407;BME280;40313;50.308;30.374;2023-01-27T19:37:42;100142.13;;;-4.17;100.00
54407;BME280;40313;50.308;30.374;2023-01-27T19:40:15;100139.50;;;-4.22;100.00
54407;BME280;40313;50.308;30.374;2023-01-27T19:42:41;100138.69;;;-4.19;100.00
54407;BME280;40313;50.308;30.374;2023-01-27T19:45:10;100135.31;;;-4.18;100.00
54407;BME280;40313;50.308;30.374;2023-01-27T19:47:37;100141.22;;;-4.21;100.00
54407;BME280;40313;50.308;30.374;2023-01-27T19:50:05;100142.06;;;-4.20;100.00
54407;BME280;40313;50.308;30.374;2023-01-27T19:52:31;100139.56;;;-4.19;100.00
54407;BME280;40313;50.308;30.374;2023-01-27T19:54:58;100133.63;;;-4.16;100.00
54407;BME280;40313;50.308;30.374;2023-01-27T19:57:24;100131.03;;;-4.19;100.00
54407;BME280;40313;50.308;30.374;2023-01-27T19:59:51;100131.91;;;-4.19;100.00
54407;BME280;40313;50.308;30.374;2023-01-27T20:02:17;100136.13;;;-4.19;100.00
54407;BME280;40313;50.308;30.374;2023-01-27T20:04:45;100148.03;;;-4.18;100.00
54407;BME280;40313;50.308;30.374;2023-01-27T20:07:12;100142.94;;;-4.20;100.00
54407;BME280;40313;50.308;30.374;2023-01-27T20:09:38;100146.31;;;-4.21;100.00
54407;BME280;40313;50.308;30.374;2023-01-27T20:12:09;100136.16;;;-4.18;100.00
54407;BME280;40313;50.308;30.374;2023-01-27T20:14:36;100146.38;;;-4.14;100.00
54407;BME280;40313;50.308;30.374;2023-01-27T20:17:03;100151.47;;;-4.13;100.00
54407;BME280;40313;50.308;30.374;2023-01-27T20:19:29;100146.38;;;-4.13;100.00
54407;BME280;40313;50.308;30.374;2023-01-27T20:21:57;100143.00;;;-4.12;100.00
54407;BME280;40313;50.308;30.374;2023-01-27T20:24:26;100137.09;;;-4.11;100.00
54407;BME280;40313;50.308;30.374;2023-01-27T20:26:52;100126.91;;;-4.11;100.00
54407;BME280;40313;50.308;30.374;2023-01-27T20:29:20;100124.34;;;-4.09;100.00
54407;BME280;40313;50.308;30.374;2023-01-27T20:31:47;100125.16;;;-4.15;100.00
54407;BME280;40313;50.308;30.374;2023-01-27T20:34:14;100117.53;;;-4.12;100.00
54407;BME280;40313;50.308;30.374;2023-01-27T20:36:41;100119.25;;;-4.11;100.00
54407;BME280;40313;50.308;30.374;2023-01-27T20:39:09;100116.69;;;-4.11;100.00
54407;BME280;40313;50.308;30.374;2023-01-27T20:41:36;100119.28;;;-4.08;100.00
54407;BME280;40313;50.308;30.374;2023-01-27T20:44:02;100122.66;;;-4.09;100.00
54407;BME280;40313;50.308;30.374;2023-01-27T20:46:29;100115.13;;;-4.01;100.00
54407;BME280;40313;50.308;30.374;2023-01-27T20:48:57;100112.56;;;-4.01;100.00
54407;BME280;40313;50.308;30.374;2023-01-27T20:51:24;100121.94;;;-3.98;100.00
54407;BME280;40313;50.308;30.374;2023-01-27T20:53:50;100118.53;;;-3.97;100.00
54407;BME280;40313;50.308;30.374;2023-01-27T20:56:20;100114.28;;;-3.98;100.00
54407;BME280;40313;50.308;30.374;2023-01-27T20:58:47;100104.09;;;-3.98;100.00
54407;BME280;40313;50.308;30.374;2023-01-27T21:01:15;100115.94;;;-4.01;100.00
54407;BME280;40313;50.308;30.374;2023-01-27T21:03:42;100110.84;;;-4.04;100.00
54407;BME280;40313;50.308;30.374;2023-01-27T21:06:10;100106.53;;;-4.08;100.00
54407;BME280;40313;50.308;30.374;2023-01-27T21:08:37;100103.06;;;-4.13;100.00
54407;BME280;40313;50.308;30.374;2023-01-27T21:11:06;100110.81;;;-4.05;100.00
54407;BME280;40313;50.308;30.374;2023-01-27T21:13:36;100100.63;;;-4.07;100.00
54407;BME280;40313;50.308;30.374;2023-01-27T21:16:03;100102.28;;;-4.07;100.00
54407;BME280;40313;50.308;30.374;2023-01-27T21:18:30;100106.53;;;-4.08;100.00
54407;BME280;40313;50.308;30.374;2023-01-27T21:20:56;100112.44;;;-4.10;100.00
54407;BME280;40313;50.308;30.374;2023-01-27T21:23:26;100113.31;;;-4.10;100.00
54407;BME280;40313;50.308;30.374;2023-01-27T21:25:53;100125.19;;;-4.09;100.00
54407;BME280;40313;50.308;30.374;2023-01-27T21:28:20;100113.31;;;-4.10;100.00
54407;BME280;40313;50.308;30.374;2023-01-27T21:30:48;100120.09;;;-4.09;100.00
54407;BME280;40313;50.308;30.374;2023-01-27T21:33:15;100117.56;;;-4.09;100.00
54407;BME280;40313;50.308;30.374;2023-01-27T21:35:42;100110.78;;;-4.08;100.00
54407;BME280;40313;50.308;30.374;2023-01-27T21:38:08;100104.00;;;-4.06;100.00
54407;BME280;40313;50.308;30.374;2023-01-27T21:40:35;100098.09;;;-4.04;100.00
54407;BME280;40313;50.308;30.374;2023-01-27T21:43:04;100097.25;;;-4.06;100.00
54407;BME280;40313;50.308;30.374;2023-01-27T21:45:55;100098.06;;;-4.07;100.00
54407;BME280;40313;50.308;30.374;2023-01-27T21:48:23;100090.38;;;-4.11;100.00
54407;BME280;40313;50.308;30.374;2023-01-27T21:50:52;100088.66;;;-4.12;100.00
54407;BME280;40313;50.308;30.374;2023-01-27T21:53:18;100086.97;;;-4.12;100.00
54407;BME280;40313;50.308;30.374;2023-01-27T21:55:45;100076.75;;;-4.12;100.00
54407;BME280;40313;50.308;30.374;2023-01-27T21:58:11;100085.28;;;-4.11;100.00
